VYMD/MDL METAR and TAF weather

Enter ICAO airport designator
Station Type Date Time Source
VYMD METAR 2022/09/26 08:30 UTC NOAA

VYMD 260830Z 36005KT 7000 BKN020 FEW025CB 34/24 Q1006


Station Type Date Time Source
VYMD Decoded METAR 2022/09/26 08:30 UTC NOAA

Station name not available
Sep 26, 2022 - 04:30 AM EDT / 2022.09.26 0830 UTC
Wind: from the N (360 degrees) at 6 MPH (5 KT):0
Visibility: 4 mile(s):0
Sky conditions: mostly cloudy
Weather: Cumulonimbus clouds observed
Temperature: 93 F (34 C)
Heat index: 104.5 F (40.3 C):1
Dew Point: 75 F (24 C)
Relative Humidity: 56%
Pressure (altimeter): 29.71 in. Hg (1006 hPa)
ob: VYMD 260830Z 36005KT 7000 BKN020 FEW025CB 34/24 Q1006
cycle: 8

Station Type Date Time Source
VYMD TAF 2022/09/26 06:00 UTC NOAA

TAF VYMD 260500Z 2606/2706 30005KT 7000 BKN020 FEW025CB
TEMPO 2606/2612 34009KT 5000 -TSRA BKN015 FEW018CB BKN100

Example: see airport list